• Join FlightAware (Why Join?)
  • Login
  • US Flag 
01:39PM EDT


 

Airport Tracker/Info


-or-


 

Live Flight TrackerFlight Track Log ✈ MAS802 ✈ 14-Jun-2013 ✈ WMKK / KUL - RPLL / MNL

Flight Track Log - Related Links

Times and Time Zones

All times are in EDT time to prevent confusion due to time zone crossing. See the MAS802 flight status page for this flight to view local times or setup timezone preferences in your user account.

Time Position Orientation Groundspeed Altitude Reporting Facility
EDT Latitude Longitude Course Direction KTS MPH feet Rate Location/Type
01:52AM 2.8080 101.6830 328° Northwest 197 227 2,100  Level FlightAware
01:52AM 2.8190 101.6760 328° Northwest 197 227 2,600 2,400 Climbing FlightAware
01:52AM 2.8370 101.6690 339° North 186 214 3,700 2,520 Climbing FlightAware
01:53AM 2.8570 101.6850 39° Northeast 191 220 4,800 1,680 Climbing FlightAware
01:53AM 2.8690 101.7120 66° East 219 252 5,400 900 Climbing FlightAware
01:54AM 2.8810 101.7370 64° Northeast 253 291 5,800 840 Climbing FlightAware
01:54AM 2.8910 101.7590 66° East 280 322 6,200 2,280 Climbing FlightAware
01:55AM 2.9170 101.8160 65° Northeast 305 351 7,900 2,940 Climbing FlightAware
01:55AM 2.9350 101.8550 65° Northeast 315 362 9,200 2,280 Climbing FlightAware
01:56AM 2.9610 101.9110 65° Northeast 333 383 10,600 1,800 Climbing FlightAware
01:57AM 2.9870 101.9690 66° East 367 422 11,600 2,280 Climbing FlightAware
01:57AM 3.0190 102.0380 65° Northeast 375 432 13,800 2,880 Climbing FlightAware
01:58AM 3.0470 102.1000 66° East 377 434 15,700 2,400 Climbing FlightAware
01:59AM 3.0760 102.1630 65° Northeast 391 450 17,200 2,040 Climbing FlightAware
01:59AM 3.1100 102.2360 65° Northeast 401 461 18,600 2,520 Climbing FlightAware
02:00AM 3.1420 102.3060 65° Northeast 397 457 20,700 2,640 Climbing FlightAware
02:01AM 3.1670 102.3740 70° East 400 460 22,200 2,400 Climbing FlightAware
02:01AM 3.1780 102.4290 79° East 404 465 23,400 2,160 Climbing FlightAware
02:02AM 3.1950 102.5080 78° East 407 468 24,900 1,860 Climbing FlightAware
02:03AM 3.2090 102.5770 79° East 410 472 26,100 1,200 Climbing FlightAware
02:03AM 3.2240 102.6490 78° East 410 472 26,600 1,740 Climbing FlightAware
02:04AM 3.2430 102.7430 79° East 418 481 28,600 1,860 Climbing FlightAware
02:05AM 3.2560 102.8060 78° East 427 491 29,000 60 Climbing FlightAware
02:07AM 3.3610 102.9669 57° Northeast  Level Estimated
02:08AM 3.4194 103.0564 57° Northeast  Level Estimated
02:08AM 3.3280 103.1550 57° Northeast 430 495 29,000  Level FlightAware
02:08AM 3.3430 103.2290 79° East 430 495 29,000  Level FlightAware
02:09AM 3.3570 103.2950 78° East 430 495 29,000  Level FlightAware
02:10AM 3.3740 103.3750 78° East 430 495 29,000  Level FlightAware
02:10AM 3.4070 103.4560 68° East 427 491 29,000 660 Level FlightAware
02:13AM 3.5462 103.6648 56° Northeast  Level Estimated
02:14AM 3.6054 103.7536 56° Northeast  Level Estimated
02:14AM 3.7070 103.8660 56° Northeast 453 521 32,100  Level FlightAware
02:15AM 3.7530 103.9300 54° Northeast 449 517 33,100 1,260 Climbing FlightAware
02:16AM 3.8060 104.0020 54° Northeast 436 502 33,900 1,260 Climbing FlightAware
02:16AM 3.8520 104.0660 54° Northeast 433 498 34,900 1,260 Climbing FlightAware
02:17AM 3.9000 104.1320 54° Northeast 435 501 35,600 660 Climbing FlightAware
02:18AM 3.9520 104.2020 53° Northeast 435 501 35,900 240 Climbing FlightAware
02:19AM 4.0100 104.2830 54° Northeast 437 503 36,000 120 Climbing FlightAware
02:19AM 4.0750 104.3720 54° Northeast 439 505 36,100 120 Climbing FlightAware
02:20AM 4.1310 104.4470 53° Northeast 439 505 36,300 120 Climbing FlightAware
02:21AM 4.1690 104.4970 53° Northeast 439 505 36,300  Level FlightAware
02:22AM 4.2190 104.5630 53° Northeast 439 505 36,300  Level FlightAware
02:22AM 4.2570 104.6140 53° Northeast 439 505 36,300  Level FlightAware
02:23AM 4.3070 104.6800 53° Northeast 439 505 36,300  Level FlightAware
02:24AM 4.3450 104.7320 54° Northeast 439 505 36,300  Level FlightAware
02:25AM 4.3950 104.7980 53° Northeast 439 505 36,300  Level FlightAware
02:25AM 4.4290 104.8420 52° Northeast 439 505 36,300  Level FlightAware
02:26AM 4.4760 104.9060 54° Northeast 439 505 36,300 1,740 Level FlightAware
02:27AM 4.5750 105.0560 56° Northeast 431 496 39,000 1,380 Climbing FlightAware
02:28AM 4.6530 105.1620 54° Northeast 431 496 39,000  Level FlightAware
02:28AM 4.7070 105.2360 54° Northeast 426 490 39,000  Level FlightAware
02:29AM 4.7560 105.3030 54° Northeast 428 493 39,000  Level FlightAware
02:30AM 4.7950 105.3570 54° Northeast 416 479 39,000  Level FlightAware
02:31AM 4.8680 105.4170 39° Northeast 419 482 39,000  Level FlightAware
02:32AM 4.9560 105.4740 33° Northeast 419 482 39,000  Level FlightAware
02:32AM 5.0060 105.5060 33° Northeast 419 482 39,000  Level FlightAware
02:33AM 5.0720 105.5500 34° Northeast 419 482 39,000  Level FlightAware
02:34AM 5.1220 105.5820 33° Northeast 419 482 39,000  Level FlightAware
02:34AM 5.1880 105.6250 33° Northeast 419 482 39,000  Level FlightAware
02:35AM 5.2390 105.6590 34° Northeast 419 482 39,000  Level FlightAware
02:36AM 5.3040 105.7010 33° Northeast 419 482 39,000  Level FlightAware
02:36AM 5.3540 105.7330 33° Northeast 419 482 39,000  Level FlightAware
02:37AM 5.4200 105.7770 34° Northeast 419 482 39,000  Level FlightAware
02:38AM 5.4700 105.8090 33° Northeast 419 482 39,000  Level FlightAware
02:39AM 5.5360 105.8520 33° Northeast 419 482 39,000  Level FlightAware
02:39AM 5.5880 105.8860 33° Northeast 419 482 39,000  Level FlightAware
02:40AM 5.6210 105.9070 32° Northeast 419 482 39,000  Level FlightAware
02:41AM 5.7170 105.9700 33° Northeast 419 482 39,000 -2,460 Level FlightAware
02:43AM 5.8218 106.1397 58° Northeast  Level Estimated
02:44AM 5.8806 106.2348 58° Northeast  Level Estimated
02:45AM 5.9393 106.3300 58° Northeast  Level Estimated
02:46AM 5.9980 106.4252 58° Northeast  Level Estimated
02:47AM 6.0567 106.5204 58° Northeast  Level Estimated
02:48AM 6.1154 106.6157 58° Northeast  Level Estimated
02:49AM 6.1741 106.7109 58° Northeast  Level Estimated
02:50AM 6.2328 106.8062 58° Northeast  Level Estimated
02:51AM 6.2914 106.9015 58° Northeast  Level Estimated
02:51AM 2.9810 101.9550 58° Northeast 364 419 11,300  Level FlightAware
02:52AM 6.3500 106.9968 58° Northeast  Level Estimated
02:52AM 3.0120 102.0210 65° Northeast 364 419 11,300  Level FlightAware
02:53AM 3.0340 102.0690 65° Northeast 364 419 11,300 7,380 Level FlightAware
02:55AM 3.1533 102.2553 57° Northeast  Level Estimated
02:56AM 3.2134 102.3492 57° Northeast  Level Estimated
02:56AM 7.3570 107.0450 57° Northeast 434 499 39,000  Level FlightAware
02:57AM 7.4690 107.1190 33° Northeast 431 496 39,000  Level FlightAware
02:58AM 7.5470 107.1700 33° Northeast 431 496 39,000  Level FlightAware
02:58AM 7.5950 107.2010 33° Northeast 431 496 39,000  Level FlightAware
02:59AM 7.6880 107.2630 33° Northeast 422 486 39,000  Level FlightAware
03:00AM 7.7590 107.2980 26° Northeast 424 488 39,000  Level FlightAware
03:00AM 7.8380 107.3310 22° Northeast 429 494 39,000  Level FlightAware
03:01AM 7.9080 107.3590 22° Northeast 432 497 39,000  Level FlightAware
03:02AM 7.9870 107.3920 22° Northeast 433 498 39,000  Level FlightAware
03:02AM 8.0680 107.4260 23° Northeast 433 498 39,000  Level FlightAware
03:03AM 8.1430 107.4570 22° Northeast 432 497 39,000  Level FlightAware
03:04AM 8.2240 107.4910 23° Northeast 432 497 39,000  Level FlightAware
03:04AM 8.2990 107.5220 22° Northeast 433 498 39,000  Level FlightAware
03:05AM 8.3680 107.5490 21° North 434 499 39,000  Level FlightAware
03:06AM 8.4600 107.5880 23° Northeast 435 501 39,000  Level FlightAware
03:07AM 8.5620 107.6350 24° Northeast 435 501 39,000  Level FlightAware
03:08AM 8.6360 107.6680 24° Northeast 434 499 39,000  Level FlightAware
03:08AM 8.7170 107.7060 25° Northeast 434 499 39,000  Level FlightAware
03:09AM 8.7890 107.7420 26° Northeast 434 499 39,000  Level FlightAware
03:10AM 8.8650 107.7850 29° Northeast 434 499 39,000  Level FlightAware
03:10AM 8.9310 107.8280 33° Northeast 435 501 39,000  Level FlightAware
03:11AM 8.9610 107.8490 35° Northeast 436 502 39,000  Level FlightAware
03:12AM 9.0720 107.9280 35° Northeast 440 506 39,000  Level FlightAware
03:12AM 9.1370 107.9750 36° Northeast 441 507 39,000  Level FlightAware
03:13AM 9.2090 108.0310 38° Northeast 446 513 39,000  Level FlightAware
03:14AM 9.2600 108.0980 52° Northeast 449 517 39,000  Level FlightAware
03:14AM 9.3140 108.1730 54° Northeast 452 520 39,000  Level FlightAware
03:15AM 9.3630 108.2420 54° Northeast 456 525 39,000  Level FlightAware
03:16AM 9.4170 108.3180 54° Northeast 459 528 39,000  Level FlightAware
03:17AM 9.4620 108.3920 58° Northeast 453 521 39,000  Level FlightAware
03:17AM 9.5080 108.4700 59° Northeast 449 517 39,000  Level FlightAware
03:18AM 9.5550 108.5460 58° Northeast 446 513 39,000  Level FlightAware
03:19AM 9.5970 108.6180 59° Northeast 445 512 39,000  Level FlightAware
03:19AM 9.6330 108.6830 61° Northeast 443 510 39,000  Level FlightAware
03:20AM 9.6830 108.7710 60° Northeast 441 507 39,000  Level FlightAware
03:21AM 9.7160 108.8330 62° Northeast 440 506 39,000  Level FlightAware
03:21AM 9.7640 108.9220 61° Northeast 438 504 39,000  Level FlightAware
03:22AM 9.8120 109.0130 62° Northeast 438 504 39,000  Level FlightAware
03:23AM 9.8420 109.0680 61° Northeast 438 504 39,000  Level FlightAware
03:24AM 9.8870 109.1860 69° East 442 509 39,000  Level FlightAware
03:25AM 9.9260 109.2780 67° East 443 510 39,000  Level FlightAware
03:26AM 9.9720 109.3910 68° East 444 511 39,000  Level FlightAware
03:26AM 9.9980 109.4510 66° East 444 511 39,000  Level FlightAware
03:27AM 10.0300 109.5300 68° East 444 511 39,000  Level FlightAware
03:28AM 10.0550 109.5890 67° East 444 511 39,000  Level FlightAware
03:29AM 10.0970 109.6880 67° East 444 511 39,000  Level FlightAware
03:29AM 10.1210 109.7470 68° East 444 511 39,000  Level FlightAware
03:30AM 10.1570 109.8320 67° East 444 511 39,000  Level FlightAware
03:31AM 10.1880 109.9070 67° East 444 511 39,000  Level FlightAware
03:32AM 10.2310 110.0100 67° East 444 511 39,000  Level FlightAware
03:33AM 10.2550 110.0670 67° East 444 511 39,000  Level FlightAware
03:33AM 10.2880 110.1450 67° East 444 511 39,000  Level FlightAware
03:34AM 10.3120 110.2040 68° East 444 511 39,000  Level FlightAware
03:35AM 10.3450 110.2830 67° East 444 511 39,000 -60 Level FlightAware
03:37AM 10.4182 110.4606 67° East  Level Estimated
03:38AM 10.4612 110.5651 67° East  Level Estimated
03:39AM 10.5042 110.6696 67° East  Level Estimated
03:40AM 10.5472 110.7742 67° East  Level Estimated
03:41AM 10.5901 110.8788 67° East  Level Estimated
03:42AM 10.6330 110.9834 67° East  Level Estimated
03:43AM 10.6758 111.0881 67° East  Level Estimated
03:44AM 10.7186 111.1927 67° East  Level Estimated
03:45AM 10.7614 111.2974 67° East  Level Estimated
03:46AM 10.8042 111.4022 67° East  Level Estimated
03:47AM 10.8469 111.5070 67° East  Level Estimated
03:48AM 10.8896 111.6118 67° East  Level Estimated
03:49AM 10.9322 111.7166 67° East  Level Estimated
03:50AM 10.9748 111.8214 68° East  Level Estimated
03:51AM 11.0174 111.9263 68° East  Level Estimated
03:52AM 11.0599 112.0313 68° East  Level Estimated
03:53AM 11.1024 112.1362 68° East  Level Estimated
03:54AM 11.1449 112.2412 68° East  Level Estimated
03:55AM 11.1873 112.3462 68° East  Level Estimated
03:56AM 11.2297 112.4512 68° East  Level Estimated
03:57AM 11.2720 112.5563 68° East  Level Estimated
03:58AM 11.3143 112.6614 68° East  Level Estimated
03:59AM 11.3566 112.7666 68° East  Level Estimated
04:00AM 11.3988 112.8717 68° East  Level Estimated
04:01AM 11.4410 112.9769 68° East  Level Estimated
04:02AM 11.4832 113.0822 68° East  Level Estimated
04:03AM 11.5253 113.1874 68° East  Level Estimated
04:04AM 11.5674 113.2927 68° East  Level Estimated
04:05AM 11.6095 113.3980 68° East  Level Estimated
04:06AM 11.6515 113.5034 68° East  Level Estimated
04:07AM 11.6934 113.6088 68° East  Level Estimated
04:08AM 11.7354 113.7142 68° East  Level Estimated
04:09AM 11.7773 113.8197 68° East  Level Estimated
04:10AM 11.8191 113.9251 68° East  Level Estimated
04:11AM 11.8610 114.0307 68° East  Level Estimated
04:12AM 11.9027 114.1362 68° East  Level Estimated
04:13AM 11.9445 114.2418 68° East  Level Estimated
04:14AM 11.9862 114.3474 68° East  Level Estimated
04:15AM 12.0278 114.4531 68° East  Level Estimated
04:16AM 12.0695 114.5587 68° East  Level Estimated
04:17AM 12.1110 114.6645 68° East  Level Estimated
04:18AM 12.1526 114.7702 68° East  Level Estimated
04:19AM 12.1941 114.8760 68° East  Level Estimated
04:20AM 12.2355 114.9818 68° East  Level Estimated
04:21AM 12.2769 115.0876 68° East  Level Estimated
04:22AM 12.3183 115.1935 68° East  Level Estimated
04:23AM 12.3597 115.2994 68° East  Level Estimated
04:24AM 12.4010 115.4054 68° East  Level Estimated
04:25AM 12.4422 115.5114 68° East  Level Estimated
04:26AM 12.4834 115.6174 68° East  Level Estimated
04:27AM 12.5246 115.7234 68° East  Level Estimated
04:28AM 12.5657 115.8295 68° East  Level Estimated
04:29AM 12.6068 115.9356 68° East  Level Estimated
04:30AM 12.6479 116.0417 68° East  Level Estimated
04:31AM 12.6889 116.1479 68° East  Level Estimated
04:32AM 12.7298 116.2542 68° East  Level Estimated
04:33AM 12.7708 116.3604 68° East  Level Estimated
04:34AM 12.8117 116.4667 68° East  Level Estimated
04:34AM 13.0470 117.3710 68° East 438 504 36,000  Level FlightAware
04:34AM 13.0670 117.4190 67° East 439 505 36,000  Level FlightAware
04:35AM 12.8525 116.5730 68° East  Level Estimated
04:35AM 13.0920 117.4810 68° East 438 504 36,000  Level FlightAware
04:37AM 13.1700 117.6730 67° East 440 506 36,000  Level FlightAware
04:38AM 13.2230 117.8020 67° East 442 509 36,000  Level FlightAware
04:38AM 13.2410 117.8480 68° East 442 509 36,000  Level FlightAware
04:39AM 13.2860 117.9570 67° East 441 507 36,000  Level FlightAware
04:40AM 13.3110 118.0190 67° East 436 502 36,000  Level FlightAware
04:41AM 13.3680 118.1600 67° East 428 493 36,000  Level FlightAware
04:41AM 13.3940 118.2240 67° East 426 490 36,000  Level FlightAware
04:42AM 13.4280 118.3070 67° East 425 489 36,000  Level FlightAware
04:43AM 13.4560 118.3750 67° East 423 487 36,000  Level FlightAware
04:43AM 13.4740 118.4220 68° East 423 487 36,000  Level FlightAware
04:44AM 13.5110 118.5120 67° East 422 486 36,000  Level FlightAware
04:45AM 13.5390 118.5810 67° East 424 488 36,000  Level FlightAware
04:46AM 13.5910 118.7180 69° East 425 489 36,000  Level FlightAware
04:47AM 13.6260 118.8940 78° East 426 490 36,000  Level FlightAware
04:48AM 13.6470 119.0050 79° East 430 495 36,000  Level FlightAware
04:49AM 13.6640 119.0950 79° East 432 497 36,000 -1,020 Level FlightAware
04:52AM 13.7789 119.3541 65° Northeast  Level Estimated
04:52AM 13.7240 119.4140 65° Northeast 428 493 32,700  Level FlightAware
04:53AM 13.7450 119.5230 79° East 419 482 30,600 -1,320 Descending FlightAware
04:54AM 13.7720 119.6660 79° East 416 479 29,800 -420 Descending FlightAware
04:55AM 13.7870 119.7450 79° East 416 479 29,800 -3,840 Level FlightAware
04:55AM 13.8030 119.8330 79° East 397 457 24,700 -4,620 Descending FlightAware
04:56AM 13.8240 119.9450 79° East 407 468 22,800 -2,220 Descending FlightAware
04:57AM 13.8490 120.0770 79° East 405 466 19,900 -2,520 Descending FlightAware
04:58AM 13.8890 120.1560 62° Northeast 401 461 18,000 -2,460 Descending FlightAware
04:59AM 13.9230 120.2040 54° Northeast 395 455 16,800 -1,680 Descending FlightAware
04:59AM 13.9620 120.2580 53° Northeast 369 425 16,100 -660 Descending FlightAware
05:02AM 14.1037 120.4547 53° Northeast  Level Estimated
05:03AM 14.1700 120.5470 53° Northeast  Level Estimated
05:03AM 14.1410 120.5750 53° Northeast 308 354 14,000  Level FlightAware
05:04AM 14.2364 120.6394 53° Northeast  Level Estimated
05:04AM 14.1560 120.6410 77° East 308 354 14,000  Level FlightAware
05:07AM 14.3388 120.8370 46° Northeast  Level Estimated
05:07AM 14.2050 120.8540 46° Northeast 299 344 13,000  Level FlightAware
05:08AM 14.2240 120.9370 77° East 265 305 13,000  Level FlightAware
05:09AM 14.2570 120.9940 59° Northeast 268 308 13,000  Level FlightAware
05:09AM 14.2970 121.0170 29° Northeast 276 318 13,000 -300 Level FlightAware
05:11AM 14.3970 121.0040 353° North 262 302 12,500 -480 Descending FlightAware
05:13AM 14.5310 120.9140 327° Northwest 257 296 11,300 -420 Descending FlightAware
05:13AM 14.5550 120.8760 303° West 253 291 11,300  Level FlightAware
05:14AM 14.5780 120.8360 301° West 257 296 11,300  Level FlightAware
05:15AM 14.6060 120.7870 301° West 257 296 11,300 -360 Level FlightAware
05:17AM 14.5316 120.9649 113° Southeast  Level Estimated
05:17AM 14.5920 120.6350 113° Southeast 235 270 10,100  Level FlightAware
05:18AM 14.5086 121.0196 113° Southeast  Level Estimated
05:18AM 14.5780 120.6220 222° Southwest 234 269 9,800  Level FlightAware
05:19AM 14.5370 120.5840 222° Southwest 235 270 8,900 -1,080 Descending FlightAware